Leandra — V2EB4 — position and weather

sailwx.info

Track history (hours):
 
Tides and Currents Weather Stations Pressure Air Temp Water Temp Dewpoint Dewpoint Depression Visibility Wind Speed Wind Dir Waves Ship Positions

Leandra

Last reported at 2014-Jul-30 20:14 UTC. Time now 2014-Jul-30 23:24 UTC.
Position N 01°15' E 103°49'.

Length 146 m; draft 5.4 m.

Type: Cargo ship. MMSI: 305375000.

Date/timePositionNaut miles runAvg speedWind from/ knotsBaromVisibWave heightAir tempDewpointWater temp
2014-Jul-30 20:14N 01°15' E 103°49'0 0.0
2014-Jul-29 21:26N 01°15' E 103°49'0 0.0
2014-Jul-29 19:32N 01°15' E 103°49'0 0.0
2014-Jul-29 18:23N 01°15' E 103°49'0 0.1
2014-Jul-29 16:08N 01°15' E 103°49'0 0.0
2014-Jul-29 14:23N 01°15' E 103°49'0 0.1
2014-Jul-29 13:27N 01°15' E 103°49'0 0.0
2014-Jul-29 12:33N 01°15' E 103°49'0 0.0
2014-Jul-29 11:27N 01°15' E 103°49'0 0.0
2014-Jul-29 09:33N 01°15' E 103°49'0 0.0
2014-Jul-28 23:12N 01°15' E 103°49'0 0.0
2014-Jul-28 22:33N 01°15' E 103°49'0 0.1
2014-Jul-28 21:33N 01°15' E 103°49'0 0.0
2014-Jul-28 19:27N 01°15' E 103°49'0 0.0
2014-Jul-28 18:21N 01°15' E 103°49'0 0.0
2014-Jul-28 17:27N 01°15' E 103°49'0 0.0
2014-Jul-28 14:15N 01°15' E 103°49'0 0.1
2014-Jul-28 13:30N 01°15' E 103°49'0 0.0
2014-Jul-28 11:21N 01°15' E 103°49'0 0.0
2014-Jul-27 23:21N 01°15' E 103°49'0 0.0
2014-Jul-27 22:33N 01°15' E 103°49'0 0.0
2014-Jul-27 20:30N 01°15' E 103°49'0 0.0
2014-Jul-27 19:30N 01°15' E 103°49'0 0.0
2014-Jul-27 18:33N 01°15' E 103°49'0 0.0
2014-Jul-27 17:33N 01°15' E 103°49'0 0.0
2014-Jul-27 16:24N 01°15' E 103°49'0 0.1
2014-Jul-27 14:06N 01°15' E 103°49'0 0.1
2014-Jul-27 13:15N 01°15' E 103°49'0 0.0
2014-Jul-27 11:24N 01°15' E 103°49'0 0.0
2014-Jul-27 10:33N 01°15' E 103°49'0 0.0
2014-Jul-27 09:33N 01°15' E 103°49'0 0.0
2014-Jul-27 07:33N 01°15' E 103°49'0 0.1
2014-Jul-27 06:30N 01°15' E 103°49'0 0.1
2014-Jul-27 05:21N 01°15' E 103°49'0 0.1
2014-Jul-27 02:33N 01°15' E 103°49'0 0.0
2014-Jul-27 01:33N 01°15' E 103°49'0 0.1
2014-Jul-26 23:27N 01°15' E 103°49'0 0.0
2014-Jul-26 21:18N 01°15' E 103°49'0 0.0
2014-Jul-26 20:27N 01°15' E 103°49'0 0.0
2014-Jul-26 19:30N 01°15' E 103°49'0 0.0
2014-Jul-26 18:30N 01°15' E 103°49'0 0.0
2014-Jul-26 17:09N 01°15' E 103°49'0 0.0
2014-Jul-26 16:33N 01°15' E 103°49'0 0.1
2014-Jul-26 15:33N 01°15' E 103°49'0 0.1
2014-Jul-26 14:27N 01°15' E 103°49'1 0.2
2014-Jul-26 09:32N 01°15' E 103°48'6 0.1
2014-Jul-24 09:27N 01°18' E 103°43'4 3.9
2014-Jul-24 08:33N 01°16' E 103°46'8 8.1
2014-Jul-24 07:33N 01°14' E 103°54'  
Track history (hours):
 
Tides and Currents Weather Stations Pressure Air Temp Water Temp Dewpoint Dewpoint Depression Visibility Wind Speed Wind Dir Waves Ship Positions

Leandra

Last reported at 2014-Jul-30 20:14 UTC. Time now 2014-Jul-30 23:24 UTC.
Position N 01°15' E 103°49'.

Length 146 m; draft 5.4 m.

Type: Cargo ship. MMSI: 305375000.

Date/timePositionNaut miles runAvg speedWind from/ knotsBaromVisibWave heightAir tempDewpointWater temp
2014-Jul-30 20:14N 01°15' E 103°49'0 0.0
2014-Jul-29 21:26N 01°15' E 103°49'0 0.0
2014-Jul-29 19:32N 01°15' E 103°49'0 0.0
2014-Jul-29 18:23N 01°15' E 103°49'0 0.1
2014-Jul-29 16:08N 01°15' E 103°49'0 0.0
2014-Jul-29 14:23N 01°15' E 103°49'0 0.1
2014-Jul-29 13:27N 01°15' E 103°49'0 0.0
2014-Jul-29 12:33N 01°15' E 103°49'0 0.0
2014-Jul-29 11:27N 01°15' E 103°49'0 0.0
2014-Jul-29 09:33N 01°15' E 103°49'0 0.0
2014-Jul-28 23:12N 01°15' E 103°49'0 0.0
2014-Jul-28 22:33N 01°15' E 103°49'0 0.1
2014-Jul-28 21:33N 01°15' E 103°49'0 0.0
2014-Jul-28 19:27N 01°15' E 103°49'0 0.0
2014-Jul-28 18:21N 01°15' E 103°49'0 0.0
2014-Jul-28 17:27N 01°15' E 103°49'0 0.0
2014-Jul-28 14:15N 01°15' E 103°49'0 0.1
2014-Jul-28 13:30N 01°15' E 103°49'0 0.0
2014-Jul-28 11:21N 01°15' E 103°49'0 0.0
2014-Jul-27 23:21N 01°15' E 103°49'0 0.0
2014-Jul-27 22:33N 01°15' E 103°49'0 0.0
2014-Jul-27 20:30N 01°15' E 103°49'0 0.0
2014-Jul-27 19:30N 01°15' E 103°49'0 0.0
2014-Jul-27 18:33N 01°15' E 103°49'0 0.0
2014-Jul-27 17:33N 01°15' E 103°49'0 0.0
2014-Jul-27 16:24N 01°15' E 103°49'0 0.1
2014-Jul-27 14:06N 01°15' E 103°49'0 0.1
2014-Jul-27 13:15N 01°15' E 103°49'0 0.0
2014-Jul-27 11:24N 01°15' E 103°49'0 0.0
2014-Jul-27 10:33N 01°15' E 103°49'0 0.0
2014-Jul-27 09:33N 01°15' E 103°49'0 0.0
2014-Jul-27 07:33N 01°15' E 103°49'0 0.1
2014-Jul-27 06:30N 01°15' E 103°49'0 0.1
2014-Jul-27 05:21N 01°15' E 103°49'0 0.1
2014-Jul-27 02:33N 01°15' E 103°49'0 0.0
2014-Jul-27 01:33N 01°15' E 103°49'0 0.1
2014-Jul-26 23:27N 01°15' E 103°49'0 0.0
2014-Jul-26 21:18N 01°15' E 103°49'0 0.0
2014-Jul-26 20:27N 01°15' E 103°49'0 0.0
2014-Jul-26 19:30N 01°15' E 103°49'0 0.0
2014-Jul-26 18:30N 01°15' E 103°49'0 0.0
2014-Jul-26 17:09N 01°15' E 103°49'0 0.0
2014-Jul-26 16:33N 01°15' E 103°49'0 0.1
2014-Jul-26 15:33N 01°15' E 103°49'0 0.1
2014-Jul-26 14:27N 01°15' E 103°49'1 0.2
2014-Jul-26 09:32N 01°15' E 103°48'6 0.1
2014-Jul-24 09:27N 01°18' E 103°43'4 3.9
2014-Jul-24 08:33N 01°16' E 103°46'8 8.1
2014-Jul-24 07:33N 01°14' E 103°54'  

Dump ship's entire track history